KAMG/AMG METAR and TAF weather

Enter ICAO airport designator
Station Type Date Time Source
KAMG METAR 2022/06/27 16:53 UTC NOAA

KAMG 271653Z AUTO 00000KT 10SM CLR 32/18 A3009 RMK AO2 SLP187 T03170178


Station Type Date Time Source
KAMG Decoded METAR 2022/06/27 16:53 UTC NOAA

ALMA BACON COUNTY AIRPORT, GA, United States (KAMG) 31-32N 82-30W 59M
Jun 27, 2022 - 12:53 PM EDT / 2022.06.27 1653 UTC
Wind: Calm:0
Visibility: 10 mile(s):0
Sky conditions: clear
Temperature: 89.1 F (31.7 C)
Dew Point: 64.0 F (17.8 C)
Relative Humidity: 43%
Pressure (altimeter): 30.09 in. Hg (1018 hPa)
ob: KAMG 271653Z AUTO 00000KT 10SM CLR 32/18 A3009 RMK AO2 SLP187 T03170178
cycle: 17

Station Type Date Time Source
KAMG TAF UTC NOAA

Error!

Example: see airport list